KMHL/MHL METAR and TAF weather

Enter ICAO airport designator
Station Type Date Time Source
KMHL METAR 2020/01/27 14:15 UTC NOAA

KMHL 271415Z AUTO 00000KT M1/4SM OVC002 M03/M03 A3002 RMK AO2 TSNO PWINO


Station Type Date Time Source
KMHL Decoded METAR 2020/01/27 14:15 UTC NOAA

Station name not available
Jan 27, 2020 - 09:15 AM EST / 2020.01.27 1415 UTC
Wind: Calm:0
Visibility: less than 1/4 mile(s):1
Sky conditions: overcast
Temperature: 26 F (-3 C)
Dew Point: 26 F (-3 C)
Relative Humidity: 100%
Pressure (altimeter): 30.02 in. Hg (1016 hPa)
ob: KMHL 271415Z AUTO 00000KT M1/4SM OVC002 M03/M03 A3002 RMK AO2 TSNO PWINO
cycle: 14

Station Type Date Time Source
KMHL TAF UTC NOAA

Error!

Example: see airport list